createdAt,value
2018-11-23T00:00:40.638Z,1.59
2018-11-23T00:03:08.886Z,1.53
2018-11-23T00:05:38.017Z,1.52
2018-11-23T00:08:06.595Z,1.62
2018-11-23T00:10:54.257Z,1.51
2018-11-23T00:13:23.389Z,1.49
2018-11-23T00:15:51.997Z,1.53
2018-11-23T00:18:20.265Z,1.54
2018-11-23T00:20:48.519Z,1.56
2018-11-23T00:23:55.541Z,1.52
2018-11-23T00:26:24.074Z,1.48
2018-11-23T00:28:52.792Z,1.52
2018-11-23T00:31:21.378Z,1.49
2018-11-23T00:33:50.197Z,1.45
2018-11-23T00:36:19.077Z,1.43
2018-11-23T00:38:48.689Z,1.39
2018-11-23T00:41:17.292Z,1.36
2018-11-23T00:43:45.873Z,1.34
2018-11-23T00:46:14.731Z,1.32
2018-11-23T00:48:43.847Z,1.32
2018-11-23T00:51:12.104Z,1.32
2018-11-23T00:53:40.704Z,1.27
2018-11-23T00:56:08.971Z,1.23
2018-11-23T00:58:56.583Z,1.18
2018-11-23T01:01:24.875Z,1.20
2018-11-23T01:03:53.630Z,1.19
2018-11-23T01:06:22.564Z,1.11
2018-11-23T01:08:51.104Z,1.10
2018-11-23T01:11:19.687Z,1.01
2018-11-23T01:13:48.277Z,1.02
2018-11-23T01:16:16.501Z,1.00
2018-11-23T01:18:44.733Z,0.97
2018-11-23T01:21:13.290Z,1.00
2018-11-23T01:23:41.822Z,1.03
2018-11-23T01:26:11.420Z,1.01
2018-11-23T01:28:39.639Z,1.03
2018-11-23T01:31:07.883Z,1.05
2018-11-23T01:33:37.274Z,1.04
2018-11-23T01:36:05.562Z,0.99
2018-11-23T01:38:36.317Z,0.93
2018-11-23T01:41:02.832Z,0.91
2018-11-23T01:43:31.798Z,0.87
2018-11-23T01:46:00.008Z,0.84
2018-11-23T01:48:47.921Z,1.01
2018-11-23T01:51:16.141Z,0.84
2018-11-23T01:53:44.368Z,0.80
2018-11-23T01:56:32.034Z,0.81
2018-11-23T01:59:01.385Z,0.88
2018-11-23T02:01:30.226Z,0.85
2018-11-23T02:03:58.831Z,0.95
2018-11-23T02:06:46.765Z,0.96
2018-11-23T02:09:15.034Z,1.06
2018-11-23T02:11:43.247Z,1.10
2018-11-23T02:14:11.857Z,1.09
2018-11-23T02:16:40.126Z,1.13
2018-11-23T02:19:09.653Z,1.16
2018-11-23T02:21:38.254Z,1.15
2018-11-23T02:24:06.465Z,1.06
2018-11-23T02:26:35.491Z,1.03
2018-11-23T02:29:04.145Z,0.98
2018-11-23T02:31:33.304Z,1.04
2018-11-23T02:34:01.522Z,1.09
2018-11-23T02:36:29.757Z,0.99
2018-11-23T02:38:58.436Z,0.95
2018-11-23T02:41:27.001Z,0.88
2018-11-23T02:43:55.258Z,0.85
2018-11-23T02:46:24.225Z,0.84
2018-11-23T02:48:53.259Z,0.85
2018-11-23T02:51:21.533Z,0.77
2018-11-23T02:53:50.315Z,0.77
2018-11-23T02:56:18.869Z,0.78
2018-11-23T02:59:06.802Z,0.79
2018-11-23T03:01:35.003Z,0.76
2018-11-23T03:04:03.247Z,0.77
2018-11-23T03:06:31.948Z,0.79
2018-11-23T03:09:19.594Z,0.84
2018-11-23T03:11:48.486Z,0.83
2018-11-23T03:14:17.040Z,0.83
2018-11-23T03:16:45.591Z,0.75
2018-11-23T03:19:13.817Z,0.71
2018-11-23T03:21:42.788Z,0.66
2018-11-23T03:24:11.256Z,0.66
2018-11-23T03:26:39.493Z,0.59
2018-11-23T03:29:08.037Z,0.50
2018-11-23T03:31:36.623Z,0.45
2018-11-23T03:34:05.966Z,0.44
2018-11-23T03:36:34.566Z,0.40
2018-11-23T03:39:02.787Z,0.37
2018-11-23T03:41:31.109Z,0.34
2018-11-23T03:43:59.809Z,0.34
2018-11-23T03:46:29.285Z,0.39
2018-11-23T03:48:57.820Z,0.42
2018-11-23T03:51:26.451Z,0.44
2018-11-23T03:53:54.757Z,0.41
2018-11-23T03:56:22.988Z,0.22
2018-11-23T03:58:52.382Z,0.18
2018-11-23T04:01:20.643Z,0.22
2018-11-23T04:03:48.894Z,0.29
2018-11-23T04:06:18.046Z,0.32
2018-11-23T04:08:46.526Z,0.37
2018-11-23T04:11:14.809Z,0.40
2018-11-23T04:13:43.719Z,0.48
2018-11-23T04:16:12.859Z,0.54
2018-11-23T04:18:41.117Z,0.50
2018-11-23T04:21:09.356Z,0.64
2018-11-23T04:23:37.972Z,0.62
2018-11-23T04:26:06.229Z,0.57
2018-11-23T04:28:53.844Z,0.49
2018-11-23T04:31:22.605Z,0.49
2018-11-23T04:33:51.174Z,0.53
2018-11-23T04:36:20.283Z,0.50
2018-11-23T04:38:48.889Z,0.49
2018-11-23T04:41:17.458Z,0.59
2018-11-23T04:43:46.210Z,0.57
2018-11-23T04:46:14.847Z,0.56
2018-11-23T04:48:43.380Z,0.50
2018-11-23T04:51:11.975Z,0.54
2018-11-23T04:53:40.602Z,0.65
2018-11-23T04:56:09.572Z,0.60
2018-11-23T04:58:38.363Z,0.57
2018-11-23T05:01:06.638Z,0.60
2018-11-23T05:03:35.174Z,0.57
2018-11-23T05:06:03.428Z,0.56
2018-11-23T05:08:32.350Z,0.61
2018-11-23T05:11:00.936Z,0.65
2018-11-23T05:13:29.878Z,0.68
2018-11-23T05:15:58.371Z,0.64
2018-11-23T05:18:27.025Z,0.68
2018-11-23T05:20:55.615Z,0.63
2018-11-23T05:23:24.534Z,0.63
2018-11-23T05:25:52.745Z,0.68
2018-11-23T05:28:21.578Z,0.63
2018-11-23T05:30:50.097Z,0.64
2018-11-23T05:33:18.869Z,0.60
2018-11-23T05:35:47.093Z,0.56
2018-11-23T05:38:15.601Z,0.63
2018-11-23T05:40:45.109Z,0.54
2018-11-23T05:43:13.309Z,0.55
2018-11-23T05:45:42.373Z,0.57
2018-11-23T05:48:10.892Z,0.52
2018-11-23T05:50:39.763Z,0.58
2018-11-23T05:53:08.404Z,0.54
2018-11-23T05:55:37.625Z,0.48
2018-11-23T05:58:05.989Z,0.43
2018-11-23T06:00:34.621Z,0.40
2018-11-23T06:03:03.509Z,0.46
2018-11-23T06:05:31.709Z,0.54
2018-11-23T06:08:00.279Z,0.36
2018-11-23T06:10:28.528Z,0.52
2018-11-23T06:12:57.418Z,0.38
2018-11-23T06:15:25.930Z,0.34
2018-11-23T06:17:54.139Z,0.30
2018-11-23T06:20:23.727Z,0.31
2018-11-23T06:22:52.809Z,0.30
2018-11-23T06:26:00.234Z,0.31
2018-11-23T06:28:29.430Z,0.35
2018-11-23T06:30:57.919Z,0.32
2018-11-23T06:33:47.009Z,0.42
2018-11-23T06:36:15.391Z,0.52
2018-11-23T06:38:44.450Z,0.55
2018-11-23T06:41:12.897Z,0.62
2018-11-23T06:43:41.410Z,0.68
2018-11-23T06:46:10.813Z,0.63
2018-11-23T06:48:39.363Z,0.65
2018-11-23T06:51:07.882Z,0.59
2018-11-23T06:53:36.376Z,0.56
2018-11-23T06:56:05.072Z,0.55
2018-11-23T06:58:33.795Z,0.57
2018-11-23T07:01:02.015Z,0.61
2018-11-23T07:03:30.288Z,0.65
2018-11-23T07:05:59.297Z,0.60
2018-11-23T07:08:27.542Z,0.58
2018-11-23T07:10:59.290Z,0.63
2018-11-23T07:13:28.648Z,0.63
2018-11-23T07:15:57.379Z,0.66
2018-11-23T07:18:25.997Z,0.63
2018-11-23T07:20:54.589Z,0.70
2018-11-23T07:23:23.253Z,0.72
2018-11-23T07:25:51.467Z,0.71
2018-11-23T07:28:20.004Z,0.71
2018-11-23T07:30:48.930Z,0.71
2018-11-23T07:33:17.142Z,0.76
2018-11-23T07:35:45.664Z,0.92
2018-11-23T07:38:13.963Z,0.89
2018-11-23T07:41:21.461Z,0.90
2018-11-23T07:43:50.024Z,0.93
2018-11-23T07:46:18.300Z,1.09
2018-11-23T07:48:47.550Z,1.21
2018-11-23T07:51:16.077Z,1.31
2018-11-23T07:53:44.594Z,1.39
2018-11-23T07:56:13.518Z,1.49
2018-11-23T07:58:41.741Z,1.59
2018-11-23T08:01:09.988Z,1.51
2018-11-23T08:03:38.585Z,1.58
2018-11-23T08:06:06.816Z,1.68
2018-11-23T08:08:35.357Z,1.71
2018-11-23T08:11:07.089Z,1.75
2018-11-23T08:13:36.184Z,1.76
2018-11-23T08:16:04.417Z,1.82
2018-11-23T08:18:32.698Z,1.85
2018-11-23T08:21:01.991Z,1.85
2018-11-23T08:23:30.536Z,1.83
2018-11-23T08:25:59.077Z,1.91
2018-11-23T08:28:28.290Z,1.95
2018-11-23T08:30:56.830Z,1.96
2018-11-23T08:33:25.070Z,2.02
2018-11-23T08:35:53.573Z,2.08
2018-11-23T08:38:22.181Z,2.21
2018-11-23T08:40:50.440Z,2.08
2018-11-23T08:43:38.316Z,2.25
2018-11-23T08:46:06.567Z,2.22
2018-11-23T08:48:35.186Z,2.29
2018-11-23T08:51:04.077Z,2.12
2018-11-23T08:53:34.363Z,2.32
2018-11-23T08:56:03.255Z,2.40
2018-11-23T08:58:32.165Z,2.46
2018-11-23T09:01:00.472Z,2.53
2018-11-23T09:03:29.025Z,2.48
2018-11-23T09:05:57.907Z,2.37
2018-11-23T09:08:26.182Z,2.43
2018-11-23T09:10:54.793Z,2.67
2018-11-23T09:13:23.404Z,2.92
2018-11-23T09:15:51.949Z,3.06
2018-11-23T09:18:20.504Z,3.14
2018-11-23T09:20:49.065Z,3.32
2018-11-23T09:23:17.740Z,3.35
2018-11-23T09:25:46.686Z,3.42
2018-11-23T09:28:15.402Z,3.63
2018-11-23T09:30:43.649Z,3.70
2018-11-23T09:33:11.916Z,3.70
2018-11-23T09:35:40.223Z,3.81
2018-11-23T09:38:08.459Z,3.88
2018-11-23T09:40:37.136Z,3.96
2018-11-23T09:43:24.824Z,4.03
2018-11-23T09:45:54.034Z,4.03
2018-11-23T09:48:22.290Z,4.23
2018-11-23T09:50:50.499Z,4.32
2018-11-23T09:53:19.020Z,4.43
2018-11-23T09:55:47.987Z,4.48
2018-11-23T09:58:16.506Z,4.57
2018-11-23T10:00:44.732Z,4.62
2018-11-23T10:03:12.992Z,4.71
2018-11-23T10:05:41.190Z,4.70
2018-11-23T10:08:09.414Z,4.71
2018-11-23T10:10:37.631Z,4.87
2018-11-23T10:13:05.896Z,4.99
2018-11-23T10:15:34.437Z,5.06
2018-11-23T10:18:02.740Z,5.19
2018-11-23T10:20:32.138Z,5.27
2018-11-23T10:23:00.344Z,5.35
2018-11-23T10:25:30.279Z,5.51
2018-11-23T10:27:58.840Z,5.57
2018-11-23T10:30:28.397Z,5.62
2018-11-23T10:32:58.598Z,5.66
2018-11-23T10:35:27.165Z,5.65
2018-11-23T10:38:14.834Z,5.72
2018-11-23T10:40:43.955Z,5.78
2018-11-23T10:43:12.552Z,5.80
2018-11-23T10:45:40.767Z,5.96
2018-11-23T10:48:09.540Z,5.92
2018-11-23T10:50:39.387Z,5.98
2018-11-23T10:53:07.955Z,6.00
2018-11-23T10:55:37.348Z,6.12
2018-11-23T10:58:06.136Z,6.11
2018-11-23T11:00:53.494Z,6.16
2018-11-23T11:03:40.800Z,6.16
2018-11-23T11:06:28.420Z,6.27
2018-11-23T11:08:56.662Z,6.48
2018-11-23T11:11:24.906Z,6.45
2018-11-23T11:13:53.463Z,6.56
2018-11-23T11:16:21.912Z,6.49
2018-11-23T11:18:50.552Z,6.55
2018-11-23T11:21:38.444Z,6.62
2018-11-23T11:24:06.659Z,6.73
2018-11-23T11:26:34.883Z,6.75
2018-11-23T11:29:03.103Z,6.80
2018-11-23T11:31:31.352Z,6.83
2018-11-23T11:33:59.852Z,6.81
2018-11-23T11:36:28.115Z,6.82
2018-11-23T11:38:57.028Z,6.85
2018-11-23T11:41:25.938Z,6.88
2018-11-23T11:43:54.855Z,6.97
2018-11-23T11:46:24.649Z,7.06
2018-11-23T11:48:52.838Z,7.04
2018-11-23T11:51:21.092Z,7.10
2018-11-23T11:53:50.002Z,7.02
2018-11-23T11:56:18.980Z,7.14
2018-11-23T11:58:47.267Z,7.26
2018-11-23T12:01:16.176Z,7.27
2018-11-23T12:03:44.441Z,7.26
2018-11-23T12:06:13.514Z,7.31
2018-11-23T12:08:42.414Z,7.46
2018-11-23T12:11:11.025Z,7.51
2018-11-23T12:13:39.604Z,7.52
2018-11-23T12:16:08.130Z,7.50
2018-11-23T12:18:36.703Z,7.53
2018-11-23T12:21:05.039Z,7.52
2018-11-23T12:23:52.667Z,7.64
2018-11-23T12:26:21.647Z,7.63
2018-11-23T12:28:49.847Z,7.56
2018-11-23T12:31:18.083Z,7.50
2018-11-23T12:33:46.648Z,7.46
2018-11-23T12:36:15.138Z,7.59
2018-11-23T12:38:44.036Z,7.59
2018-11-23T12:41:12.729Z,7.72
2018-11-23T12:43:41.343Z,7.81
2018-11-23T12:46:28.954Z,7.90
2018-11-23T12:48:57.400Z,7.96
2018-11-23T12:51:25.951Z,8.06
2018-11-23T12:53:54.741Z,8.21
2018-11-23T12:56:23.310Z,8.22
2018-11-23T12:58:51.825Z,8.30
2018-11-23T13:01:20.077Z,8.36
2018-11-23T13:03:49.384Z,8.47
2018-11-23T13:06:17.701Z,8.47
2018-11-23T13:08:47.032Z,8.38
2018-11-23T13:11:15.529Z,8.36
2018-11-23T13:13:44.184Z,8.32
2018-11-23T13:16:12.397Z,8.42
2018-11-23T13:18:41.139Z,8.33
2018-11-23T13:21:10.048Z,8.41
2018-11-23T13:23:38.536Z,8.39
2018-11-23T13:26:06.818Z,8.40
2018-11-23T13:28:35.030Z,8.33
2018-11-23T13:31:03.283Z,8.27
2018-11-23T13:33:32.235Z,8.45
2018-11-23T13:36:19.884Z,8.61
2018-11-23T13:38:48.746Z,8.56
2018-11-23T13:41:16.967Z,8.66
2018-11-23T13:43:45.542Z,8.42
2018-11-23T13:46:14.492Z,8.51
2018-11-23T13:48:42.726Z,8.46
2018-11-23T13:51:11.049Z,8.64
2018-11-23T13:53:39.579Z,8.52
2018-11-23T13:56:08.487Z,8.51
2018-11-23T13:58:37.145Z,8.42
2018-11-23T14:01:05.532Z,8.39
2018-11-23T14:03:34.657Z,8.35
2018-11-23T14:06:02.944Z,8.24
2018-11-23T14:08:31.249Z,8.33
2018-11-23T14:10:59.780Z,8.25
2018-11-23T14:13:28.417Z,8.17
2018-11-23T14:16:16.395Z,8.16
2018-11-23T14:18:45.422Z,8.16
2018-11-23T14:21:13.703Z,8.22
2018-11-23T14:23:42.284Z,8.18
2018-11-23T14:26:11.171Z,8.01
2018-11-23T14:28:59.102Z,7.91
2018-11-23T14:31:27.688Z,7.97
2018-11-23T14:34:15.325Z,8.07
2018-11-23T14:36:43.685Z,7.91
2018-11-23T14:39:13.104Z,7.98
2018-11-23T14:41:40.880Z,7.92
2018-11-23T14:44:09.079Z,7.94
2018-11-23T14:46:38.050Z,7.86
2018-11-23T14:49:06.752Z,7.77
2018-11-23T14:51:36.234Z,7.80
2018-11-23T14:54:04.456Z,7.74
2018-11-23T14:56:32.704Z,7.65
2018-11-23T14:59:00.949Z,7.62
2018-11-23T15:01:29.640Z,7.60
2018-11-23T15:03:58.533Z,7.49
2018-11-23T15:06:26.851Z,7.36
2018-11-23T15:08:55.920Z,7.24
2018-11-23T15:11:24.155Z,7.25
2018-11-23T15:13:52.432Z,7.20
2018-11-23T15:16:20.748Z,7.17
2018-11-23T15:18:49.828Z,7.02
2018-11-23T15:21:18.079Z,7.06
2018-11-23T15:23:46.641Z,7.07
2018-11-23T15:26:14.864Z,6.89
2018-11-23T15:28:43.131Z,6.86
2018-11-23T15:31:11.793Z,6.92
2018-11-23T15:33:40.382Z,6.72
2018-11-23T15:36:08.928Z,6.74
2018-11-23T15:38:37.483Z,6.72
2018-11-23T15:41:06.405Z,6.64
2018-11-23T15:43:54.341Z,6.59
2018-11-23T15:46:22.575Z,6.51
2018-11-23T15:48:51.199Z,6.40
2018-11-23T15:51:19.479Z,6.45
2018-11-23T15:53:48.040Z,6.27
2018-11-23T15:56:35.969Z,6.32
2018-11-23T15:59:04.265Z,6.30
2018-11-23T16:01:33.134Z,6.37
2018-11-23T16:04:01.368Z,6.40
2018-11-23T16:06:30.069Z,6.35
2018-11-23T16:08:58.653Z,6.31
2018-11-23T16:11:28.211Z,6.12
2018-11-23T16:13:56.536Z,6.05
2018-11-23T16:16:25.149Z,5.90
2018-11-23T16:18:54.082Z,5.92
2018-11-23T16:21:22.728Z,5.81
2018-11-23T16:23:51.003Z,5.76
2018-11-23T16:26:19.821Z,5.75
2018-11-23T16:28:48.074Z,5.69
2018-11-23T16:31:16.676Z,5.71
2018-11-23T16:33:44.928Z,5.67
2018-11-23T16:36:13.588Z,5.64
2018-11-23T16:38:41.949Z,5.52
2018-11-23T16:41:10.569Z,5.54
2018-11-23T16:43:39.165Z,5.56
2018-11-23T16:46:07.800Z,5.55
2018-11-23T16:48:36.371Z,5.44
2018-11-23T16:51:04.842Z,5.31
2018-11-23T16:53:33.762Z,5.31
2018-11-23T16:56:02.035Z,5.25
2018-11-23T16:58:31.518Z,5.16
2018-11-23T17:01:00.485Z,5.04
2018-11-23T17:03:28.738Z,5.00
2018-11-23T17:06:11.006Z,5.09
2018-11-23T17:08:39.840Z,4.96
2018-11-23T17:11:07.471Z,4.94
2018-11-23T17:13:36.125Z,5.03
2018-11-23T17:16:04.338Z,4.92
2018-11-23T17:18:32.598Z,4.84
2018-11-23T17:21:01.222Z,4.85
2018-11-23T17:23:29.727Z,4.85
2018-11-23T17:25:58.260Z,4.75
2018-11-23T17:28:26.763Z,4.61
2018-11-23T17:30:55.214Z,4.67
2018-11-23T17:33:23.813Z,4.57
2018-11-23T17:35:52.771Z,4.56
2018-11-23T17:38:21.021Z,4.50
2018-11-23T17:40:49.245Z,4.50
2018-11-23T17:43:18.475Z,4.50
2018-11-23T17:45:46.760Z,4.45
2018-11-23T17:48:15.311Z,4.47
2018-11-23T17:50:43.518Z,4.42
2018-11-23T17:53:12.011Z,4.33
2018-11-23T17:55:40.896Z,4.38
2018-11-23T17:58:09.111Z,4.32
2018-11-23T18:00:39.481Z,4.31
2018-11-23T18:03:07.066Z,4.33
2018-11-23T18:05:35.720Z,4.35
2018-11-23T18:08:04.640Z,4.42
2018-11-23T18:10:33.909Z,4.36
2018-11-23T18:13:02.481Z,4.21
2018-11-23T18:15:32.323Z,4.22
2018-11-23T18:18:01.710Z,4.21
2018-11-23T18:20:30.944Z,4.35
2018-11-23T18:23:18.603Z,4.30
2018-11-23T18:26:06.245Z,4.20
2018-11-23T18:28:34.518Z,4.14
2018-11-23T18:31:22.148Z,4.17
2018-11-23T18:33:50.637Z,4.16
2018-11-23T18:36:18.833Z,4.05
2018-11-23T18:38:48.152Z,4.06
2018-11-23T18:41:16.895Z,4.03
2018-11-23T18:43:45.526Z,3.98
2018-11-23T18:46:14.029Z,4.03
2018-11-23T18:49:01.712Z,4.01
2018-11-23T18:51:30.353Z,3.96
2018-11-23T18:53:58.877Z,4.03
2018-11-23T19:00:02.411Z,4.06
2018-11-23T19:02:30.649Z,4.07
2018-11-23T19:04:59.788Z,4.19
2018-11-23T19:07:29.145Z,4.12
2018-11-23T19:09:57.669Z,4.15
2018-11-23T19:12:25.912Z,4.04
2018-11-23T19:14:54.152Z,4.14
2018-11-23T19:17:22.395Z,4.21
2018-11-23T19:19:50.604Z,4.31
2018-11-23T19:22:19.272Z,4.24
2018-11-23T19:24:47.555Z,4.08
2018-11-23T19:27:16.078Z,4.06
2018-11-23T19:29:44.597Z,4.20
2018-11-23T19:32:13.109Z,4.04
2018-11-23T19:34:41.645Z,4.06
2018-11-23T19:37:09.882Z,4.01
2018-11-23T19:39:38.743Z,3.99
2018-11-23T19:42:06.985Z,4.04
2018-11-23T19:44:35.208Z,4.09
2018-11-23T19:47:03.667Z,4.05
2018-11-23T19:49:32.956Z,4.18
2018-11-23T19:52:01.616Z,4.05
2018-11-23T19:54:29.842Z,4.21
2018-11-23T19:56:58.386Z,4.16
2018-11-23T19:59:26.903Z,4.07
2018-11-23T20:01:55.405Z,3.96
2018-11-23T20:04:23.960Z,4.11
2018-11-23T20:06:52.978Z,4.13
2018-11-23T20:09:21.540Z,4.09
2018-11-23T20:11:49.770Z,4.21
2018-11-23T20:14:17.988Z,4.22
2018-11-23T20:16:46.559Z,4.23
2018-11-23T20:19:14.804Z,4.13
2018-11-23T20:21:43.650Z,4.25
2018-11-23T20:24:12.145Z,4.16
2018-11-23T20:26:41.120Z,4.12
2018-11-23T20:29:09.770Z,4.06
2018-11-23T20:31:38.300Z,4.00
2018-11-23T20:34:09.626Z,4.05
2018-11-23T20:36:37.816Z,3.93
2018-11-23T20:39:08.905Z,4.01
2018-11-23T20:41:37.918Z,3.91
2018-11-23T20:44:06.654Z,4.02
2018-11-23T20:46:35.780Z,4.00
2018-11-23T20:49:04.361Z,3.96
2018-11-23T20:51:32.909Z,3.90
2018-11-23T20:54:01.492Z,3.93
2018-11-23T20:56:30.125Z,3.99
2018-11-23T20:58:58.745Z,4.04
2018-11-23T21:01:27.277Z,3.98
2018-11-23T21:03:56.208Z,4.18
2018-11-23T21:06:24.743Z,4.24
2018-11-23T21:08:53.560Z,4.11
2018-11-23T21:11:21.796Z,4.22
2018-11-23T21:13:50.042Z,4.11
2018-11-23T21:16:18.925Z,4.10
2018-11-23T21:18:47.136Z,4.13
2018-11-23T21:21:15.487Z,3.96
2018-11-23T21:23:43.965Z,4.09
2018-11-23T21:26:12.174Z,4.07
2018-11-23T21:28:41.624Z,4.15
2018-11-23T21:31:10.229Z,4.08
2018-11-23T21:33:39.117Z,4.03
2018-11-23T21:36:07.396Z,3.96
2018-11-23T21:38:35.632Z,4.06
2018-11-23T21:41:04.146Z,4.13
2018-11-23T21:43:32.398Z,4.06
2018-11-23T21:46:01.010Z,3.96
2018-11-23T21:48:29.509Z,3.94
2018-11-23T21:50:58.113Z,4.12
2018-11-23T21:53:27.063Z,3.91
2018-11-23T21:55:55.822Z,3.93
2018-11-23T21:58:24.369Z,4.06
2018-11-23T22:00:53.181Z,3.99
2018-11-23T22:03:21.641Z,4.03
2018-11-23T22:05:50.252Z,4.01
2018-11-23T22:08:19.145Z,4.21
2018-11-23T22:10:47.385Z,4.22
2018-11-23T22:13:15.672Z,4.20
2018-11-23T22:15:44.220Z,4.22
2018-11-23T22:18:12.917Z,4.12
2018-11-23T22:20:41.785Z,3.98
2018-11-23T22:23:10.342Z,4.03
2018-11-23T22:25:39.665Z,4.11
2018-11-23T22:28:08.215Z,4.17
2018-11-23T22:30:36.746Z,4.23
2018-11-23T22:33:05.022Z,4.32
2018-11-23T22:35:34.142Z,4.26
2018-11-23T22:38:02.698Z,4.30
2018-11-23T22:40:31.586Z,4.30
2018-11-23T22:43:00.708Z,4.16
2018-11-23T22:45:29.269Z,4.29
2018-11-23T22:47:58.124Z,4.32
2018-11-23T22:50:26.659Z,4.25
2018-11-23T22:52:54.859Z,4.10
2018-11-23T22:55:24.338Z,4.14
2018-11-23T22:57:53.001Z,4.22
2018-11-23T23:00:59.941Z,4.14
2018-11-23T23:03:28.536Z,4.06
2018-11-23T23:05:58.579Z,4.08
2018-11-23T23:08:27.061Z,4.09
2018-11-23T23:10:55.289Z,4.17
2018-11-23T23:13:23.816Z,4.16
2018-11-23T23:15:52.028Z,4.31
2018-11-23T23:18:20.259Z,4.36
2018-11-23T23:20:49.699Z,4.48
2018-11-23T23:23:18.329Z,4.41
2018-11-23T23:25:47.002Z,4.22
2018-11-23T23:28:15.541Z,4.28
2018-11-23T23:30:44.042Z,4.31
2018-11-23T23:33:12.305Z,4.36
2018-11-23T23:35:40.570Z,4.34
2018-11-23T23:38:09.541Z,4.39
2018-11-23T23:40:38.554Z,4.38
2018-11-23T23:43:06.759Z,4.21
2018-11-23T23:45:36.401Z,4.35
2018-11-23T23:48:04.662Z,4.28
2018-11-23T23:50:52.277Z,4.25
2018-11-23T23:53:20.515Z,4.27
2018-11-23T23:55:55.592Z,4.25
2018-11-23T23:58:24.216Z,4.21
